createdAt,value
2019-04-07T00:00:36.327Z,14.03
2019-04-07T00:03:07.076Z,14.00
2019-04-07T00:05:37.787Z,13.96
2019-04-07T00:08:08.843Z,13.94
2019-04-07T00:10:40.189Z,13.86
2019-04-07T00:13:11.040Z,13.92
2019-04-07T00:15:41.800Z,13.80
2019-04-07T00:18:12.647Z,13.81
2019-04-07T00:20:44.957Z,13.75
2019-04-07T00:23:16.257Z,13.74
2019-04-07T00:25:47.950Z,13.71
2019-04-07T00:28:19.590Z,13.60
2019-04-07T00:30:51.280Z,13.54
2019-04-07T00:33:22.067Z,13.49
2019-04-07T00:35:53.081Z,13.52
2019-04-07T00:38:23.971Z,13.51
2019-04-07T00:40:54.725Z,13.44
2019-04-07T00:43:25.469Z,13.34
2019-04-07T00:45:56.983Z,13.28
2019-04-07T00:48:28.680Z,13.36
2019-04-07T00:50:59.513Z,13.26
2019-04-07T00:53:30.944Z,13.26
2019-04-07T00:56:01.533Z,13.21
2019-04-07T00:58:32.327Z,13.21
2019-04-07T01:01:03.167Z,13.17
2019-04-07T01:03:34.859Z,13.10
2019-04-07T01:06:06.509Z,13.11
2019-04-07T01:08:37.452Z,13.15
2019-04-07T01:11:08.865Z,13.09
2019-04-07T01:13:40.104Z,13.08
2019-04-07T01:16:11.058Z,13.09
2019-04-07T01:18:42.541Z,13.02
2019-04-07T01:21:13.830Z,13.01
2019-04-07T01:23:44.894Z,13.00
2019-04-07T01:26:16.335Z,12.94
2019-04-07T01:28:48.711Z,12.94
2019-04-07T01:31:19.794Z,12.88
2019-04-07T01:33:50.797Z,12.83
2019-04-07T01:36:21.896Z,12.88
2019-04-07T01:38:53.290Z,12.82
2019-04-07T01:41:26.325Z,12.90
2019-04-07T01:44:17.962Z,12.82
2019-04-07T01:47:06.484Z,12.82
2019-04-07T01:49:47.992Z,12.70
2019-04-07T01:52:21.066Z,12.65
2019-04-07T01:54:53.972Z,12.65
2019-04-07T01:57:29.263Z,12.63
2019-04-07T02:00:04.572Z,12.70
2019-04-07T02:02:49.396Z,12.56
2019-04-07T02:05:38.560Z,12.56
2019-04-07T02:08:14.586Z,12.57
2019-04-07T02:11:03.492Z,12.50
2019-04-07T02:13:36.203Z,12.60
2019-04-07T02:16:15.661Z,12.46
2019-04-07T02:19:03.601Z,12.43
2019-04-07T02:21:45.015Z,12.48
2019-04-07T02:24:34.414Z,12.42
2019-04-07T02:27:13.186Z,12.43
2019-04-07T02:29:51.394Z,12.36
2019-04-07T02:32:24.535Z,12.34
2019-04-07T02:34:57.515Z,12.32
2019-04-07T02:37:35.810Z,12.27
2019-04-07T02:40:25.217Z,12.25
2019-04-07T02:43:06.464Z,12.23
2019-04-07T02:45:45.215Z,12.25
2019-04-07T02:48:24.237Z,12.22
2019-04-07T02:51:06.114Z,12.17
2019-04-07T02:53:41.157Z,12.13
2019-04-07T02:56:13.634Z,12.18
2019-04-07T02:58:46.300Z,12.09
2019-04-07T03:01:27.963Z,12.18
2019-04-07T03:04:12.020Z,12.11
2019-04-07T03:06:49.720Z,12.19
2019-04-07T03:09:18.782Z,12.11
2019-04-07T03:12:04.379Z,12.17
2019-04-07T03:14:53.427Z,12.01
2019-04-07T03:17:36.194Z,12.02
2019-04-07T03:20:09.986Z,11.92
2019-04-07T03:22:48.599Z,11.90
2019-04-07T03:25:23.987Z,11.94
2019-04-07T03:28:00.510Z,11.88
2019-04-07T03:30:54.168Z,11.88
2019-04-07T03:33:40.770Z,11.84
2019-04-07T03:36:16.106Z,11.80
2019-04-07T03:38:55.779Z,11.73
2019-04-07T03:41:31.585Z,11.70
2019-04-07T03:44:05.973Z,11.76
2019-04-07T03:46:38.924Z,11.70
2019-04-07T03:49:11.405Z,11.61
2019-04-07T03:52:00.388Z,11.52
2019-04-07T03:54:36.574Z,11.52
2019-04-07T03:57:13.116Z,11.48
2019-04-07T03:59:47.320Z,11.49
2019-04-07T04:02:29.341Z,11.36
2019-04-07T04:05:05.336Z,11.40
2019-04-07T04:07:38.758Z,11.32
2019-04-07T04:10:28.940Z,11.33
2019-04-07T04:13:01.486Z,11.34
2019-04-07T04:15:34.035Z,11.31
2019-04-07T04:18:05.448Z,11.30
2019-04-07T04:20:37.232Z,11.20
2019-04-07T04:23:08.970Z,11.20
2019-04-07T04:25:40.667Z,11.22
2019-04-07T04:28:14.406Z,11.16
2019-04-07T04:30:45.207Z,11.19
2019-04-07T04:33:16.033Z,11.10
2019-04-07T04:35:46.567Z,11.14
2019-04-07T04:38:17.802Z,11.21
2019-04-07T04:40:49.372Z,11.04
2019-04-07T04:43:20.437Z,10.98
2019-04-07T04:45:53.218Z,11.00
2019-04-07T04:48:23.803Z,11.08
2019-04-07T04:50:55.928Z,11.06
2019-04-07T04:53:26.857Z,11.02
2019-04-07T04:55:58.900Z,10.96
2019-04-07T04:58:30.297Z,10.98
2019-04-07T05:01:02.910Z,10.99
2019-04-07T05:03:33.941Z,10.94
2019-04-07T05:06:05.048Z,11.02
2019-04-07T05:08:36.004Z,11.00
2019-04-07T05:11:06.903Z,10.94
2019-04-07T05:13:37.398Z,11.00
2019-04-07T05:16:08.350Z,11.04
2019-04-07T05:18:39.169Z,11.07
2019-04-07T05:21:10.622Z,11.08
2019-04-07T05:23:41.563Z,11.11
2019-04-07T05:26:11.961Z,11.02
2019-04-07T05:28:42.716Z,11.16
2019-04-07T05:31:13.557Z,11.25
2019-04-07T05:33:44.924Z,11.13
2019-04-07T05:36:15.953Z,11.13
2019-04-07T05:38:46.745Z,11.16
2019-04-07T05:41:18.349Z,11.34
2019-04-07T05:43:49.320Z,11.42
2019-04-07T05:46:20.169Z,11.50
2019-04-07T05:48:52.610Z,11.56
2019-04-07T05:51:23.691Z,11.64
2019-04-07T05:53:54.740Z,11.59
2019-04-07T05:56:27.620Z,11.48
2019-04-07T05:58:58.173Z,11.56
2019-04-07T06:01:29.241Z,11.60
2019-04-07T06:04:00.075Z,11.58
2019-04-07T06:06:30.890Z,11.44
2019-04-07T06:09:03.032Z,11.47
2019-04-07T06:11:36.005Z,11.52
2019-04-07T06:14:07.325Z,11.56
2019-04-07T06:16:38.776Z,11.46
2019-04-07T06:19:09.772Z,11.45
2019-04-07T06:21:46.170Z,11.48
2019-04-07T06:24:16.099Z,11.47
2019-04-07T06:26:49.173Z,11.41
2019-04-07T06:29:19.912Z,11.43
2019-04-07T06:31:51.049Z,11.50
2019-04-07T06:34:22.584Z,11.51
2019-04-07T06:36:55.320Z,11.46
2019-04-07T06:39:25.644Z,11.54
2019-04-07T06:41:58.904Z,11.53
2019-04-07T06:44:29.044Z,11.57
2019-04-07T06:47:04.689Z,11.60
2019-04-07T06:49:37.113Z,11.66
2019-04-07T06:52:12.589Z,11.78
2019-04-07T06:54:56.159Z,11.76
2019-04-07T06:57:36.091Z,11.86
2019-04-07T07:00:20.590Z,11.92
2019-04-07T07:03:02.889Z,11.90
2019-04-07T07:05:44.245Z,12.02
2019-04-07T07:08:19.348Z,12.03
2019-04-07T07:11:07.844Z,12.10
2019-04-07T07:13:57.749Z,12.21
2019-04-07T07:16:33.417Z,12.32
2019-04-07T07:19:24.455Z,12.39
2019-04-07T07:22:15.990Z,12.46
2019-04-07T07:24:47.236Z,12.57
2019-04-07T07:27:18.557Z,12.54
2019-04-07T07:29:51.919Z,12.64
2019-04-07T07:32:22.687Z,12.73
2019-04-07T07:34:54.154Z,12.76
2019-04-07T07:37:26.164Z,12.80
2019-04-07T07:39:57.710Z,12.90
2019-04-07T07:42:28.929Z,12.89
2019-04-07T07:44:59.939Z,12.96
2019-04-07T07:47:31.358Z,13.00
2019-04-07T07:50:04.794Z,13.08
2019-04-07T07:52:35.138Z,13.22
2019-04-07T07:55:07.506Z,13.28
2019-04-07T07:57:38.461Z,13.39
2019-04-07T08:00:10.305Z,13.46
2019-04-07T08:02:41.139Z,13.53
2019-04-07T08:05:12.442Z,13.62
2019-04-07T08:07:46.788Z,13.72
2019-04-07T08:10:17.063Z,13.69
2019-04-07T08:12:49.701Z,13.99
2019-04-07T08:15:25.424Z,14.17
2019-04-07T08:17:53.476Z,14.24
2019-04-07T08:20:24.373Z,14.36
2019-04-07T08:22:56.093Z,14.45
2019-04-07T08:25:29.170Z,14.55
2019-04-07T08:28:26.375Z,14.50
2019-04-07T08:31:12.088Z,14.52
2019-04-07T08:36:45.388Z,14.69
2019-04-07T08:39:42.185Z,14.66
2019-04-07T08:43:19.670Z,14.72
2019-04-07T08:45:11.358Z,14.81
2019-04-07T08:47:40.237Z,14.84
2019-04-07T08:50:58.699Z,14.79
2019-04-07T08:53:26.846Z,14.90
2019-04-07T08:56:11.932Z,15.06
2019-04-07T08:58:52.129Z,15.00
2019-04-07T09:01:23.776Z,15.09
2019-04-07T09:03:54.907Z,15.23
2019-04-07T09:06:29.118Z,15.21
2019-04-07T09:09:04.010Z,15.31
2019-04-07T09:11:35.582Z,15.31
2019-04-07T09:14:07.988Z,15.28
2019-04-07T09:16:46.870Z,15.38
2019-04-07T09:19:18.188Z,15.36
2019-04-07T09:22:01.996Z,15.42
2019-04-07T09:24:34.604Z,15.42
2019-04-07T09:27:07.874Z,15.44
2019-04-07T09:29:43.205Z,15.57
2019-04-07T09:32:34.642Z,15.64
2019-04-07T09:35:25.826Z,15.78
2019-04-07T09:38:11.619Z,15.72
2019-04-07T09:40:46.268Z,15.75
2019-04-07T09:43:24.851Z,15.74
2019-04-07T09:46:13.709Z,15.89
2019-04-07T09:48:52.869Z,16.01
2019-04-07T09:51:37.666Z,16.11
2019-04-07T09:54:23.102Z,16.19
2019-04-07T09:57:06.948Z,16.32
2019-04-07T09:59:55.347Z,16.35
2019-04-07T10:02:31.882Z,16.38
2019-04-07T10:05:02.244Z,16.41
2019-04-07T10:07:44.041Z,16.38
2019-04-07T10:10:17.172Z,16.53
2019-04-07T10:13:08.070Z,16.50
2019-04-07T10:15:44.206Z,16.50
2019-04-07T10:18:34.144Z,16.56
2019-04-07T10:21:10.001Z,16.55
2019-04-07T10:23:51.880Z,16.58
2019-04-07T10:26:40.709Z,16.63
2019-04-07T10:29:21.920Z,16.74
2019-04-07T10:31:57.620Z,16.73
2019-04-07T10:34:33.131Z,16.56
2019-04-07T10:37:14.665Z,16.64
2019-04-07T10:39:48.307Z,16.75
2019-04-07T10:42:29.788Z,16.78
2019-04-07T10:45:07.269Z,16.73
2019-04-07T10:47:43.637Z,16.82
2019-04-07T10:50:31.472Z,16.94
2019-04-07T10:53:20.643Z,17.10
2019-04-07T10:56:02.326Z,17.02
2019-04-07T10:58:50.862Z,17.12
2019-04-07T11:01:36.246Z,17.10
2019-04-07T11:04:09.491Z,17.17
2019-04-07T11:06:46.146Z,17.08
2019-04-07T11:09:21.448Z,17.16
2019-04-07T11:11:56.730Z,17.16
2019-04-07T11:14:47.331Z,17.20
2019-04-07T11:17:20.465Z,17.22
2019-04-07T11:20:05.055Z,17.18
2019-04-07T11:22:56.307Z,17.12
2019-04-07T11:25:45.103Z,17.23
2019-04-07T11:28:17.834Z,17.16
2019-04-07T11:31:00.413Z,17.33
2019-04-07T11:33:36.197Z,17.41
2019-04-07T11:36:09.433Z,17.40
2019-04-07T11:38:58.517Z,17.38
2019-04-07T11:41:30.760Z,17.42
2019-04-07T11:44:03.385Z,17.35
2019-04-07T11:46:48.378Z,17.48
2019-04-07T11:49:32.707Z,17.62
2019-04-07T11:52:05.936Z,17.64
2019-04-07T11:54:38.566Z,17.67
2019-04-07T11:57:13.685Z,17.68
2019-04-07T12:00:02.351Z,17.64
2019-04-07T12:02:35.075Z,17.80
2019-04-07T12:05:12.731Z,17.86
2019-04-07T12:08:02.842Z,17.73
2019-04-07T12:10:54.646Z,17.74
2019-04-07T12:13:35.742Z,17.70
2019-04-07T12:16:10.872Z,17.62
2019-04-07T12:19:01.519Z,17.71
2019-04-07T12:21:42.669Z,17.70
2019-04-07T12:24:30.791Z,17.83
2019-04-07T12:27:06.772Z,17.82
2019-04-07T12:29:39.838Z,17.96
2019-04-07T12:32:12.647Z,17.93
2019-04-07T12:34:50.988Z,17.88
2019-04-07T12:37:28.449Z,18.02
2019-04-07T12:40:20.830Z,18.00
2019-04-07T12:42:52.143Z,18.08
2019-04-07T12:45:38.484Z,18.10
2019-04-07T12:48:11.375Z,18.01
2019-04-07T12:50:43.657Z,18.09
2019-04-07T12:53:36.286Z,18.07
2019-04-07T12:56:09.591Z,18.18
2019-04-07T12:58:59.128Z,18.18
2019-04-07T13:01:48.525Z,18.22
2019-04-07T13:04:38.687Z,18.23
2019-04-07T13:07:27.219Z,18.26
2019-04-07T13:10:01.893Z,18.23
2019-04-07T13:12:34.312Z,18.32
2019-04-07T13:15:26.865Z,18.27
2019-04-07T13:18:03.642Z,18.24
2019-04-07T13:20:34.680Z,18.25
2019-04-07T13:23:09.531Z,18.24
2019-04-07T13:25:42.834Z,18.23
2019-04-07T13:28:16.417Z,18.22
2019-04-07T13:31:06.598Z,18.36
2019-04-07T13:33:59.751Z,18.28
2019-04-07T13:36:35.820Z,18.34
2019-04-07T13:39:10.538Z,18.29
2019-04-07T13:41:55.301Z,18.43
2019-04-07T13:44:45.923Z,18.46
2019-04-07T13:47:24.235Z,18.53
2019-04-07T13:50:06.309Z,18.64
2019-04-07T13:52:54.147Z,18.69
2019-04-07T13:55:24.866Z,18.71
2019-04-07T13:58:13.949Z,18.60
2019-04-07T14:00:52.968Z,18.66
2019-04-07T14:03:31.398Z,18.75
2019-04-07T14:06:14.686Z,18.84
2019-04-07T14:08:52.359Z,18.78
2019-04-07T14:11:56.558Z,18.82
2019-04-07T14:14:26.708Z,18.78
2019-04-07T14:17:15.259Z,18.80
2019-04-07T14:19:54.074Z,18.80
2019-04-07T14:22:33.171Z,18.81
2019-04-07T14:25:22.027Z,18.88
2019-04-07T14:28:00.115Z,18.88
2019-04-07T14:30:41.311Z,18.88
2019-04-07T14:33:13.771Z,18.90
2019-04-07T14:35:48.913Z,18.88
2019-04-07T14:38:22.245Z,18.85
2019-04-07T14:40:54.919Z,18.93
2019-04-07T14:43:27.368Z,18.85
2019-04-07T14:46:01.099Z,18.83
2019-04-07T14:48:40.195Z,18.93
2019-04-07T14:51:16.293Z,18.84
2019-04-07T14:54:04.409Z,18.70
2019-04-07T14:56:38.599Z,18.75
2019-04-07T14:59:28.428Z,18.65
2019-04-07T15:02:01.772Z,18.66
2019-04-07T15:04:34.557Z,18.58
2019-04-07T15:07:12.912Z,18.60
2019-04-07T15:09:48.140Z,18.66
2019-04-07T15:12:30.266Z,18.78
2019-04-07T15:15:05.568Z,18.68
2019-04-07T15:17:35.807Z,18.68
2019-04-07T15:20:07.629Z,18.70
2019-04-07T15:22:38.980Z,18.67
2019-04-07T15:25:10.317Z,18.61
2019-04-07T15:27:41.406Z,18.70
2019-04-07T15:30:15.270Z,18.64
2019-04-07T15:32:44.806Z,18.62
2019-04-07T15:35:16.236Z,18.67
2019-04-07T15:37:47.689Z,18.50
2019-04-07T15:40:19.254Z,18.64
2019-04-07T15:42:51.037Z,18.61
2019-04-07T15:45:22.370Z,18.63
2019-04-07T15:47:54.021Z,18.55
2019-04-07T15:50:29.412Z,18.59
2019-04-07T15:53:01.558Z,18.59
2019-04-07T15:55:45.465Z,18.49
2019-04-07T15:58:05.249Z,18.58
2019-04-07T16:00:36.112Z,18.60
2019-04-07T16:03:07.391Z,18.52
2019-04-07T16:05:42.823Z,18.52
2019-04-07T16:08:11.678Z,18.58
2019-04-07T16:10:45.114Z,18.58
2019-04-07T16:13:15.742Z,18.51
2019-04-07T16:15:50.941Z,18.57
2019-04-07T16:18:20.042Z,18.47
2019-04-07T16:20:51.684Z,18.42
2019-04-07T16:23:22.237Z,18.43
2019-04-07T16:25:54.959Z,18.37
2019-04-07T16:28:28.529Z,18.37
2019-04-07T16:30:59.454Z,18.38
2019-04-07T16:33:33.988Z,18.40
2019-04-07T16:36:04.460Z,18.32
2019-04-07T16:38:36.866Z,18.38
2019-04-07T16:41:07.934Z,18.29
2019-04-07T16:43:45.722Z,18.28
2019-04-07T16:46:20.508Z,18.32
2019-04-07T16:48:51.226Z,18.18
2019-04-07T16:51:26.383Z,18.18
2019-04-07T16:53:54.336Z,18.21
2019-04-07T16:56:27.606Z,18.15
2019-04-07T16:58:59.426Z,18.07
2019-04-07T17:01:33.506Z,18.04
2019-04-07T17:04:04.677Z,18.03
2019-04-07T17:06:36.085Z,17.97
2019-04-07T17:09:11.068Z,17.91
2019-04-07T17:11:43.105Z,17.94
2019-04-07T17:14:14.192Z,17.83
2019-04-07T17:16:47.160Z,17.82
2019-04-07T17:19:17.122Z,17.79
2019-04-07T17:21:51.894Z,17.78
2019-04-07T17:24:25.072Z,17.74
2019-04-07T17:26:53.784Z,17.68
2019-04-07T17:29:24.761Z,17.66
2019-04-07T17:32:01.224Z,17.67
2019-04-07T17:34:30.492Z,17.55
2019-04-07T17:37:02.765Z,17.49
2019-04-07T17:39:39.128Z,17.44
2019-04-07T17:42:11.602Z,17.48
2019-04-07T17:45:02.058Z,17.43
2019-04-07T17:47:43.319Z,17.34
2019-04-07T17:50:32.159Z,17.29
2019-04-07T17:53:11.650Z,17.26
2019-04-07T17:55:50.600Z,17.17
2019-04-07T17:58:39.946Z,17.25
2019-04-07T18:01:30.060Z,17.14
2019-04-07T18:04:03.788Z,17.11
2019-04-07T18:06:36.606Z,17.06
2019-04-07T18:09:12.697Z,17.06
2019-04-07T18:12:06.797Z,16.98
2019-04-07T18:14:57.052Z,16.96
2019-04-07T18:17:46.005Z,16.91
2019-04-07T18:20:17.358Z,16.88
2019-04-07T18:22:51.884Z,16.87
2019-04-07T18:25:41.189Z,16.88
2019-04-07T18:28:23.838Z,16.78
2019-04-07T18:31:04.347Z,16.72
2019-04-07T18:33:38.349Z,16.72
2019-04-07T18:36:10.918Z,16.69
2019-04-07T18:38:47.089Z,16.65
2019-04-07T18:41:17.232Z,16.58
2019-04-07T18:43:57.987Z,16.60
2019-04-07T18:46:24.829Z,16.56
2019-04-07T18:49:01.141Z,16.56
2019-04-07T18:51:49.460Z,16.52
2019-04-07T18:54:26.903Z,16.47
2019-04-07T18:57:15.297Z,16.48
2019-04-07T18:59:57.829Z,16.44
2019-04-07T19:02:45.320Z,16.41
2019-04-07T19:05:16.769Z,16.44
2019-04-07T19:07:54.897Z,16.40
2019-04-07T19:10:28.010Z,16.38
2019-04-07T19:13:14.599Z,16.31
2019-04-07T19:15:47.492Z,16.26
2019-04-07T19:18:20.471Z,16.24
2019-04-07T19:21:01.047Z,16.24
2019-04-07T19:23:49.039Z,16.23
2019-04-07T19:26:38.944Z,16.15
2019-04-07T19:29:23.633Z,16.11
2019-04-07T19:32:13.309Z,16.09
2019-04-07T19:34:53.617Z,16.09
2019-04-07T19:37:26.250Z,16.08
2019-04-07T19:40:14.493Z,16.02
2019-04-07T19:42:53.121Z,15.95
2019-04-07T19:45:26.836Z,15.96
2019-04-07T19:47:59.416Z,15.97
2019-04-07T19:50:50.832Z,15.94
2019-04-07T19:53:28.678Z,15.89
2019-04-07T19:55:58.401Z,15.84
2019-04-07T19:58:37.262Z,15.77
2019-04-07T20:01:25.542Z,15.68
2019-04-07T20:03:56.055Z,15.59
2019-04-07T20:06:37.531Z,15.58
2019-04-07T20:09:12.265Z,15.49
2019-04-07T20:12:02.473Z,15.46
2019-04-07T20:14:45.058Z,15.35
2019-04-07T20:17:09.427Z,15.34
2019-04-07T20:19:49.366Z,15.14
2019-04-07T20:22:23.112Z,15.09
2019-04-07T20:25:15.988Z,15.05
2019-04-07T20:28:03.057Z,14.98
2019-04-07T20:30:46.964Z,15.00
2019-04-07T20:33:18.978Z,14.94
2019-04-07T20:35:53.866Z,14.89
2019-04-07T20:38:27.668Z,14.82
2019-04-07T20:41:17.141Z,14.86
2019-04-07T20:43:51.268Z,14.75
2019-04-07T20:46:36.027Z,14.64
2019-04-07T20:49:25.101Z,14.65
2019-04-07T20:52:13.332Z,14.64
2019-04-07T20:55:04.768Z,14.62
2019-04-07T20:57:39.089Z,14.56
2019-04-07T21:00:14.543Z,14.58
2019-04-07T21:03:15.095Z,14.53
2019-04-07T21:05:46.732Z,14.54
2019-04-07T21:08:24.070Z,14.38
2019-04-07T21:10:56.085Z,14.34
2019-04-07T21:13:34.598Z,14.37
2019-04-07T21:16:23.420Z,14.32
2019-04-07T21:19:11.310Z,14.24
2019-04-07T21:22:00.114Z,14.30
2019-04-07T21:24:35.613Z,14.24
2019-04-07T21:27:08.086Z,14.20
2019-04-07T21:29:56.741Z,14.12
2019-04-07T21:32:48.629Z,14.13
2019-04-07T21:35:38.349Z,14.11
2019-04-07T21:38:16.192Z,14.12
2019-04-07T21:40:51.357Z,14.00
2019-04-07T21:43:28.040Z,14.01
2019-04-07T21:46:13.218Z,13.91
2019-04-07T21:48:48.065Z,13.93
2019-04-07T21:51:33.236Z,13.93
2019-04-07T21:54:05.821Z,13.90
2019-04-07T21:56:45.199Z,13.99
2019-04-07T21:59:21.521Z,14.10
2019-04-07T22:02:00.031Z,13.82
2019-04-07T22:04:36.174Z,13.82
2019-04-07T22:07:09.091Z,13.76
2019-04-07T22:09:50.699Z,13.73
2019-04-07T22:12:26.772Z,13.63
2019-04-07T22:14:55.514Z,13.61
2019-04-07T22:17:26.034Z,13.49
2019-04-07T22:19:56.776Z,13.48
2019-04-07T22:22:27.736Z,13.38
2019-04-07T22:25:05.976Z,13.36
2019-04-07T22:27:37.167Z,13.35
2019-04-07T22:30:11.129Z,13.28
2019-04-07T22:32:42.721Z,13.37
2019-04-07T22:35:16.948Z,13.38
2019-04-07T22:37:52.682Z,13.30
2019-04-07T22:40:23.844Z,13.22
2019-04-07T22:42:54.594Z,13.21
2019-04-07T22:45:29.864Z,13.25
2019-04-07T22:47:59.265Z,13.14
2019-04-07T22:50:32.636Z,13.23
2019-04-07T22:53:03.763Z,13.15
2019-04-07T22:55:36.049Z,13.20
2019-04-07T22:58:07.513Z,13.20
2019-04-07T23:00:38.624Z,13.08
2019-04-07T23:03:09.976Z,13.03
2019-04-07T23:05:41.604Z,13.08
2019-04-07T23:08:12.591Z,12.95
2019-04-07T23:10:44.237Z,12.98
2019-04-07T23:13:15.493Z,13.20
2019-04-07T23:15:47.427Z,12.95
2019-04-07T23:18:18.501Z,12.85
2019-04-07T23:20:49.316Z,12.80
2019-04-07T23:23:20.122Z,12.83
2019-04-07T23:25:51.455Z,12.77
2019-04-07T23:28:22.942Z,12.80
2019-04-07T23:30:54.646Z,12.86
2019-04-07T23:33:25.594Z,12.78
2019-04-07T23:35:57.451Z,12.69
2019-04-07T23:38:28.923Z,12.70
2019-04-07T23:40:59.927Z,12.69
2019-04-07T23:43:30.845Z,12.75
2019-04-07T23:46:02.262Z,12.72
2019-04-07T23:48:33.434Z,12.60
2019-04-07T23:51:04.308Z,12.77
2019-04-07T23:53:54.662Z,12.66
2019-04-07T23:56:25.393Z,12.58
2019-04-07T23:58:56.292Z,12.48
